createdAt,value
2019-05-30T00:01:22.041Z,18.09
2019-05-30T00:03:52.399Z,18.00
2019-05-30T00:06:22.785Z,18.04
2019-05-30T00:08:54.331Z,18.04
2019-05-30T00:11:24.934Z,18.09
2019-05-30T00:13:56.684Z,18.11
2019-05-30T00:16:27.505Z,17.94
2019-05-30T00:18:58.729Z,18.05
2019-05-30T00:21:29.143Z,18.11
2019-05-30T00:23:59.947Z,18.10
2019-05-30T00:26:30.406Z,18.11
2019-05-30T00:29:02.552Z,18.17
2019-05-30T00:31:33.160Z,18.12
2019-05-30T00:34:04.234Z,18.11
2019-05-30T00:39:06.560Z,18.11
2019-05-30T00:41:37.009Z,18.17
2019-05-30T00:44:07.931Z,18.20
2019-05-30T00:46:38.664Z,18.41
2019-05-30T00:49:08.936Z,18.02
2019-05-30T00:51:39.664Z,18.30
2019-05-30T00:54:10.450Z,18.00
2019-05-30T00:56:40.762Z,18.24
2019-05-30T00:59:11.078Z,17.96
2019-05-30T01:01:41.790Z,18.01
2019-05-30T01:04:12.103Z,18.47
2019-05-30T01:06:42.431Z,18.55
2019-05-30T01:09:12.905Z,18.41
2019-05-30T01:11:43.408Z,18.57
2019-05-30T01:14:14.083Z,18.13
2019-05-30T01:16:44.511Z,18.45
2019-05-30T01:19:14.860Z,18.21
2019-05-30T01:21:45.892Z,18.24
2019-05-30T01:24:16.182Z,18.32
2019-05-30T01:26:46.565Z,18.39
2019-05-30T01:29:17.269Z,18.65
2019-05-30T01:31:47.655Z,18.81
2019-05-30T01:34:17.940Z,18.81
2019-05-30T01:36:48.544Z,18.72
2019-05-30T01:39:19.256Z,18.82
2019-05-30T01:41:49.816Z,18.88
2019-05-30T01:44:20.243Z,18.97
2019-05-30T01:46:50.745Z,19.00
2019-05-30T01:49:21.394Z,18.83
2019-05-30T01:51:51.782Z,19.09
2019-05-30T01:54:22.375Z,19.09
2019-05-30T01:56:53.150Z,18.63
2019-05-30T01:59:24.872Z,18.31
2019-05-30T02:01:55.369Z,18.31
2019-05-30T02:04:26.040Z,18.64
2019-05-30T02:06:56.744Z,18.36
2019-05-30T02:09:27.023Z,18.41
2019-05-30T02:11:57.386Z,18.36
2019-05-30T02:14:27.719Z,18.55
2019-05-30T02:16:59.601Z,18.67
2019-05-30T02:19:30.255Z,18.55
2019-05-30T02:22:01.663Z,18.76
2019-05-30T02:24:33.293Z,18.78
2019-05-30T02:27:06.255Z,18.82
2019-05-30T02:29:36.620Z,18.91
2019-05-30T02:32:07.667Z,18.88
2019-05-30T02:34:39.744Z,18.67
2019-05-30T02:37:10.898Z,18.31
2019-05-30T02:39:42.109Z,18.13
2019-05-30T02:42:12.857Z,17.75
2019-05-30T02:44:43.206Z,17.65
2019-05-30T02:47:13.476Z,17.49
2019-05-30T02:49:44.201Z,17.53
2019-05-30T02:52:14.838Z,17.47
2019-05-30T02:54:45.171Z,17.22
2019-05-30T02:57:15.855Z,17.23
2019-05-30T02:59:46.619Z,17.08
2019-05-30T03:02:17.904Z,17.08
2019-05-30T03:04:48.703Z,17.09
2019-05-30T03:07:19.765Z,16.97
2019-05-30T03:09:50.467Z,17.00
2019-05-30T03:12:21.221Z,16.96
2019-05-30T03:14:52.079Z,16.95
2019-05-30T03:17:22.354Z,16.95
2019-05-30T03:19:52.894Z,17.04
2019-05-30T03:22:23.268Z,16.91
2019-05-30T03:24:54.056Z,16.96
2019-05-30T03:27:24.822Z,17.05
2019-05-30T03:29:55.337Z,16.99
2019-05-30T03:34:58.505Z,17.10
2019-05-30T03:37:30.526Z,17.04
2019-05-30T03:40:00.813Z,17.04
2019-05-30T03:42:31.242Z,17.02
2019-05-30T03:45:01.683Z,17.18
2019-05-30T03:47:35.006Z,17.17
2019-05-30T03:50:07.327Z,17.27
2019-05-30T03:52:38.529Z,17.25
2019-05-30T03:55:11.894Z,17.22
2019-05-30T03:57:46.263Z,17.30
2019-05-30T04:00:27.876Z,17.36
2019-05-30T04:03:15.608Z,17.38
2019-05-30T04:05:50.873Z,17.55
2019-05-30T04:08:23.189Z,17.54
2019-05-30T04:10:56.602Z,17.53
2019-05-30T04:13:36.297Z,17.50
2019-05-30T04:16:06.990Z,17.47
2019-05-30T04:18:38.661Z,17.60
2019-05-30T04:21:11.510Z,17.55
2019-05-30T04:23:41.565Z,17.65
2019-05-30T04:26:13.480Z,17.65
2019-05-30T04:28:44.089Z,17.71
2019-05-30T04:31:17.111Z,17.88
2019-05-30T04:33:48.173Z,17.89
2019-05-30T04:36:19.121Z,17.91
2019-05-30T04:38:50.016Z,17.85
2019-05-30T04:41:21.059Z,18.09
2019-05-30T04:43:51.535Z,17.97
2019-05-30T04:46:22.201Z,18.01
2019-05-30T04:48:52.642Z,18.13
2019-05-30T04:51:23.032Z,18.24
2019-05-30T04:53:53.520Z,18.37
2019-05-30T04:56:23.864Z,18.39
2019-05-30T04:58:55.560Z,18.39
2019-05-30T05:01:26.300Z,18.62
2019-05-30T05:03:56.639Z,18.51
2019-05-30T05:06:27.232Z,18.58
2019-05-30T05:08:57.929Z,18.69
2019-05-30T05:11:28.218Z,18.67
2019-05-30T05:13:58.618Z,18.43
2019-05-30T05:16:35.392Z,18.53
2019-05-30T05:19:01.450Z,18.81
2019-05-30T05:21:31.849Z,19.02
2019-05-30T05:24:02.622Z,18.92
2019-05-30T05:26:32.963Z,18.91
2019-05-30T05:29:03.757Z,19.00
2019-05-30T05:31:34.061Z,19.16
2019-05-30T05:34:04.646Z,19.20
2019-05-30T05:36:35.359Z,19.55
2019-05-30T05:39:07.417Z,19.84
2019-05-30T05:41:37.751Z,19.80
2019-05-30T05:44:08.509Z,19.42
2019-05-30T05:46:38.829Z,19.23
2019-05-30T05:49:09.102Z,19.30
2019-05-30T05:51:39.767Z,19.60
2019-05-30T05:54:10.170Z,19.74
2019-05-30T05:56:40.530Z,19.72
2019-05-30T05:59:11.302Z,19.36
2019-05-30T06:01:42.554Z,19.56
2019-05-30T06:04:13.858Z,20.00
2019-05-30T06:06:44.436Z,20.25
2019-05-30T06:09:14.877Z,20.00
2019-05-30T06:11:48.852Z,20.02
2019-05-30T06:14:17.840Z,19.90
2019-05-30T06:16:48.102Z,20.05
2019-05-30T06:19:19.112Z,20.26
2019-05-30T06:21:53.879Z,19.73
2019-05-30T06:24:22.100Z,19.97
2019-05-30T06:26:52.592Z,19.90
2019-05-30T06:29:24.114Z,20.13
2019-05-30T06:31:54.632Z,20.65
2019-05-30T06:34:36.015Z,20.73
2019-05-30T06:36:58.060Z,20.60
2019-05-30T06:39:29.699Z,20.05
2019-05-30T06:42:00.245Z,20.34
2019-05-30T06:44:30.561Z,20.52
2019-05-30T06:47:01.038Z,20.51
2019-05-30T06:49:31.828Z,20.51
2019-05-30T06:52:02.112Z,20.52
2019-05-30T06:54:33.726Z,20.66
2019-05-30T06:57:04.589Z,21.01
2019-05-30T06:59:34.921Z,21.01
2019-05-30T07:02:05.375Z,21.41
2019-05-30T07:04:51.119Z,21.17
2019-05-30T07:07:08.254Z,21.36
2019-05-30T07:09:38.851Z,21.81
2019-05-30T07:12:11.873Z,21.69
2019-05-30T07:14:41.642Z,21.91
2019-05-30T07:17:11.967Z,22.00
2019-05-30T07:19:42.730Z,22.14
2019-05-30T07:22:13.210Z,21.96
2019-05-30T07:24:43.545Z,22.13
2019-05-30T07:27:15.386Z,22.11
2019-05-30T07:29:46.012Z,22.13
2019-05-30T07:32:16.374Z,22.07
2019-05-30T07:34:46.753Z,22.26
2019-05-30T07:37:17.272Z,21.79
2019-05-30T07:39:48.092Z,21.99
2019-05-30T07:42:18.491Z,21.70
2019-05-30T07:44:48.802Z,21.68
2019-05-30T07:47:20.537Z,21.87
2019-05-30T07:49:52.092Z,21.92
2019-05-30T07:52:22.358Z,21.96
2019-05-30T07:54:52.792Z,22.42
2019-05-30T07:57:23.496Z,22.07
2019-05-30T07:59:53.849Z,22.49
2019-05-30T08:02:24.130Z,22.76
2019-05-30T08:04:54.834Z,22.78
2019-05-30T08:07:25.097Z,23.06
2019-05-30T08:09:55.865Z,23.26
2019-05-30T08:12:26.238Z,22.92
2019-05-30T08:14:56.735Z,22.43
2019-05-30T08:17:27.366Z,22.41
2019-05-30T08:19:57.743Z,22.54
2019-05-30T08:22:28.067Z,22.90
2019-05-30T08:24:58.932Z,23.33
2019-05-30T08:27:30.160Z,23.55
2019-05-30T08:30:00.723Z,22.92
2019-05-30T08:32:32.463Z,23.20
2019-05-30T08:35:03.218Z,22.61
2019-05-30T08:37:33.508Z,23.29
2019-05-30T08:40:06.088Z,23.62
2019-05-30T08:42:38.198Z,23.44
2019-05-30T08:45:10.621Z,23.75
2019-05-30T08:47:40.957Z,23.87
2019-05-30T08:50:12.079Z,23.99
2019-05-30T08:52:42.824Z,23.88
2019-05-30T08:55:13.887Z,23.94
2019-05-30T08:57:44.183Z,23.69
2019-05-30T09:00:16.560Z,23.92
2019-05-30T09:02:47.213Z,24.06
2019-05-30T09:05:18.709Z,24.03
2019-05-30T09:07:50.265Z,24.14
2019-05-30T09:10:21.407Z,23.56
2019-05-30T09:12:52.710Z,23.19
2019-05-30T09:15:23.446Z,23.20
2019-05-30T09:17:53.732Z,23.43
2019-05-30T09:20:24.927Z,22.93
2019-05-30T09:22:55.662Z,23.68
2019-05-30T09:25:26.675Z,23.59
2019-05-30T09:27:57.411Z,24.14
2019-05-30T09:30:29.322Z,23.81
2019-05-30T09:32:59.612Z,24.28
2019-05-30T09:35:30.157Z,24.53
2019-05-30T09:38:00.885Z,24.45
2019-05-30T09:40:34.106Z,24.59
2019-05-30T09:43:04.790Z,24.18
2019-05-30T09:45:35.176Z,24.05
2019-05-30T09:48:05.764Z,24.14
2019-05-30T09:50:37.365Z,24.65
2019-05-30T09:53:07.678Z,25.01
2019-05-30T09:55:38.150Z,25.42
2019-05-30T09:58:08.935Z,26.11
2019-05-30T10:00:39.700Z,25.90
2019-05-30T10:03:10.181Z,26.31
2019-05-30T10:05:40.772Z,26.29
2019-05-30T10:08:11.057Z,26.13
2019-05-30T10:10:41.445Z,25.45
2019-05-30T10:13:12.162Z,25.04
2019-05-30T10:15:42.550Z,25.10
2019-05-30T10:18:12.988Z,25.48
2019-05-30T10:20:44.433Z,26.12
2019-05-30T10:23:15.285Z,25.96
2019-05-30T10:25:46.628Z,25.84
2019-05-30T10:28:18.142Z,25.69
2019-05-30T10:30:53.672Z,25.44
2019-05-30T10:33:20.765Z,25.51
2019-05-30T10:35:51.852Z,24.67
2019-05-30T10:38:23.429Z,25.61
2019-05-30T10:40:54.143Z,25.42
2019-05-30T10:43:24.542Z,25.02
2019-05-30T10:45:54.822Z,24.73
2019-05-30T10:48:25.625Z,24.93
2019-05-30T10:50:56.458Z,25.30
2019-05-30T10:53:27.351Z,25.05
2019-05-30T10:55:58.016Z,24.80
2019-05-30T10:58:28.388Z,24.59
2019-05-30T11:00:59.431Z,24.99
2019-05-30T11:03:30.164Z,25.06
2019-05-30T11:06:10.093Z,25.33
2019-05-30T11:08:43.378Z,25.69
2019-05-30T11:11:13.738Z,25.84
2019-05-30T11:13:44.052Z,26.17
2019-05-30T11:16:14.367Z,26.53
2019-05-30T11:18:45.123Z,26.11
2019-05-30T11:21:15.413Z,25.98
2019-05-30T11:23:45.745Z,25.89
2019-05-30T11:26:17.842Z,25.60
2019-05-30T11:28:48.578Z,25.78
2019-05-30T11:31:18.946Z,26.19
2019-05-30T11:33:50.770Z,26.10
2019-05-30T11:36:21.441Z,25.63
2019-05-30T11:38:52.378Z,25.85
2019-05-30T11:41:23.928Z,25.54
2019-05-30T11:43:55.643Z,25.71
2019-05-30T11:46:25.985Z,25.00
2019-05-30T11:48:57.875Z,25.19
2019-05-30T11:51:28.357Z,25.29
2019-05-30T11:53:58.865Z,25.37
2019-05-30T11:56:29.304Z,25.54
2019-05-30T11:59:00.195Z,25.29
2019-05-30T12:01:31.986Z,24.96
2019-05-30T12:04:02.661Z,25.24
2019-05-30T12:06:33.026Z,25.57
2019-05-30T12:09:04.459Z,25.55
2019-05-30T12:11:34.943Z,25.90
2019-05-30T12:14:05.396Z,25.98
2019-05-30T12:16:35.877Z,26.54
2019-05-30T12:19:06.796Z,26.92
2019-05-30T12:21:37.075Z,27.49
2019-05-30T12:24:07.388Z,27.72
2019-05-30T12:26:38.045Z,27.62
2019-05-30T12:29:08.799Z,28.98
2019-05-30T12:31:39.675Z,28.94
2019-05-30T12:34:10.002Z,28.24
2019-05-30T12:36:40.383Z,28.00
2019-05-30T12:39:10.963Z,27.51
2019-05-30T12:41:41.304Z,27.45
2019-05-30T12:44:11.589Z,27.35
2019-05-30T12:46:42.326Z,26.58
2019-05-30T12:49:12.698Z,26.08
2019-05-30T12:51:43.079Z,26.66
2019-05-30T12:54:13.812Z,26.88
2019-05-30T12:56:44.252Z,26.47
2019-05-30T12:59:15.033Z,26.80
2019-05-30T13:01:45.324Z,26.33
2019-05-30T13:04:15.618Z,26.67
2019-05-30T13:06:46.361Z,26.27
2019-05-30T13:09:16.641Z,25.23
2019-05-30T13:11:47.415Z,25.43
2019-05-30T13:14:18.050Z,25.65
2019-05-30T13:16:48.704Z,24.93
2019-05-30T13:19:18.972Z,25.67
2019-05-30T13:21:49.681Z,25.43
2019-05-30T13:24:20.345Z,25.68
2019-05-30T13:26:50.656Z,26.17
2019-05-30T13:29:21.314Z,26.52
2019-05-30T13:31:51.638Z,26.20
2019-05-30T13:34:22.266Z,25.24
2019-05-30T13:36:52.831Z,27.04
2019-05-30T13:39:23.108Z,27.02
2019-05-30T13:41:53.461Z,27.02
2019-05-30T13:44:23.860Z,26.85
2019-05-30T13:46:54.148Z,26.97
2019-05-30T13:49:24.864Z,27.34
2019-05-30T13:51:55.738Z,27.98
2019-05-30T13:54:26.065Z,27.82
2019-05-30T13:56:56.487Z,28.01
2019-05-30T13:59:27.144Z,28.97
2019-05-30T14:01:57.436Z,29.75
2019-05-30T14:04:28.063Z,29.33
2019-05-30T14:06:58.393Z,29.52
2019-05-30T14:09:29.216Z,29.18
2019-05-30T14:12:00.391Z,28.87
2019-05-30T14:14:30.694Z,29.01
2019-05-30T14:17:01.129Z,28.40
2019-05-30T14:19:31.714Z,28.83
2019-05-30T14:22:03.201Z,28.57
2019-05-30T14:24:34.165Z,29.01
2019-05-30T14:27:05.450Z,29.54
2019-05-30T14:29:35.850Z,29.61
2019-05-30T14:32:06.149Z,29.50
2019-05-30T14:34:36.788Z,29.67
2019-05-30T14:37:08.406Z,28.08
2019-05-30T14:39:39.148Z,27.92
2019-05-30T14:42:09.615Z,27.94
2019-05-30T14:44:39.901Z,27.83
2019-05-30T14:47:12.484Z,27.88
2019-05-30T14:49:42.843Z,27.93
2019-05-30T14:52:13.379Z,28.29
2019-05-30T14:54:44.046Z,27.38
2019-05-30T14:57:14.524Z,27.88
2019-05-30T14:59:44.913Z,27.68
2019-05-30T15:02:15.600Z,27.72
2019-05-30T15:04:46.281Z,27.00
2019-05-30T15:07:16.772Z,27.16
2019-05-30T15:09:47.039Z,27.25
2019-05-30T15:12:17.377Z,26.22
2019-05-30T15:14:48.017Z,25.03
2019-05-30T15:17:18.462Z,25.87
2019-05-30T15:19:49.052Z,24.83
2019-05-30T15:22:19.755Z,25.07
2019-05-30T15:24:50.489Z,25.30
2019-05-30T15:27:21.006Z,25.49
2019-05-30T15:29:51.656Z,25.10
2019-05-30T15:32:22.431Z,24.93
2019-05-30T15:34:52.829Z,25.33
2019-05-30T15:37:23.221Z,24.35
2019-05-30T15:39:53.856Z,24.09
2019-05-30T15:42:24.150Z,24.53
2019-05-30T15:44:54.497Z,24.16
2019-05-30T15:47:25.128Z,24.77
2019-05-30T15:49:55.614Z,24.85
2019-05-30T15:52:25.930Z,25.17
2019-05-30T15:54:56.566Z,25.11
2019-05-30T15:57:27.148Z,24.61
2019-05-30T15:59:57.524Z,25.44
2019-05-30T16:02:28.274Z,25.05
2019-05-30T16:04:59.006Z,25.17
2019-05-30T16:07:29.273Z,24.73
2019-05-30T16:09:59.650Z,24.87
2019-05-30T16:12:30.065Z,25.79
2019-05-30T16:15:00.564Z,25.11
2019-05-30T16:17:31.033Z,24.98
2019-05-30T16:20:01.416Z,25.42
2019-05-30T16:22:32.208Z,25.89
2019-05-30T16:25:02.982Z,26.15
2019-05-30T16:27:34.388Z,25.97
2019-05-30T16:30:05.539Z,26.02
2019-05-30T16:32:36.243Z,26.07
2019-05-30T16:35:07.399Z,26.81
2019-05-30T16:37:37.720Z,26.55
2019-05-30T16:40:09.345Z,26.00
2019-05-30T16:42:39.670Z,26.07
2019-05-30T16:45:11.141Z,25.37
2019-05-30T16:47:41.418Z,26.20
2019-05-30T16:50:14.498Z,25.74
2019-05-30T16:52:45.141Z,24.75
2019-05-30T16:55:17.193Z,25.10
2019-05-30T16:57:47.762Z,25.17
2019-05-30T17:00:19.930Z,24.63
2019-05-30T17:02:50.284Z,24.77
2019-05-30T17:05:20.973Z,23.71
2019-05-30T17:07:51.448Z,23.19
2019-05-30T17:10:28.851Z,23.28
2019-05-30T17:12:53.868Z,22.86
2019-05-30T17:15:25.970Z,22.49
2019-05-30T17:17:56.490Z,22.73
2019-05-30T17:20:27.156Z,22.96
2019-05-30T17:22:57.466Z,23.02
2019-05-30T17:25:27.784Z,23.25
2019-05-30T17:27:59.036Z,23.17
2019-05-30T17:30:29.825Z,23.07
2019-05-30T17:33:00.117Z,23.20
2019-05-30T17:35:30.782Z,22.79
2019-05-30T17:38:01.284Z,22.73
2019-05-30T17:40:44.151Z,22.64
2019-05-30T17:43:04.109Z,22.52
2019-05-30T17:45:34.746Z,22.12
2019-05-30T17:48:16.029Z,22.15
2019-05-30T17:50:37.363Z,22.25
2019-05-30T17:53:08.152Z,21.76
2019-05-30T17:55:38.520Z,21.79
2019-05-30T17:58:10.379Z,21.61
2019-05-30T18:00:41.263Z,21.50
2019-05-30T18:03:11.596Z,21.62
2019-05-30T18:05:41.978Z,21.45
2019-05-30T18:08:12.380Z,21.13
2019-05-30T18:10:53.199Z,20.92
2019-05-30T18:13:14.650Z,20.95
2019-05-30T18:15:45.366Z,20.89
2019-05-30T18:18:15.926Z,20.64
2019-05-30T18:20:48.803Z,20.55
2019-05-30T18:23:18.727Z,20.47
2019-05-30T18:25:49.225Z,20.56
2019-05-30T18:28:21.484Z,20.47
2019-05-30T18:30:53.832Z,20.01
2019-05-30T18:33:24.234Z,20.15
2019-05-30T18:35:55.138Z,19.89
2019-05-30T18:38:26.342Z,19.89
2019-05-30T18:41:10.185Z,19.79
2019-05-30T18:43:29.185Z,19.38
2019-05-30T18:45:59.812Z,19.80
2019-05-30T18:48:31.433Z,19.60
2019-05-30T18:51:02.687Z,19.28
2019-05-30T18:53:33.071Z,19.21
2019-05-30T18:56:03.584Z,19.31
2019-05-30T18:58:34.058Z,19.17
2019-05-30T19:01:04.794Z,19.09
2019-05-30T19:03:37.114Z,18.90
2019-05-30T19:06:08.703Z,18.92
2019-05-30T19:08:39.055Z,18.66
2019-05-30T19:11:09.784Z,18.58
2019-05-30T19:13:40.635Z,18.70
2019-05-30T19:16:10.947Z,18.62
2019-05-30T19:18:41.342Z,18.51
2019-05-30T19:21:12.150Z,18.53
2019-05-30T19:23:42.453Z,18.45
2019-05-30T19:26:13.278Z,18.39
2019-05-30T19:28:43.548Z,18.36
2019-05-30T19:31:14.171Z,18.32
2019-05-30T19:33:44.909Z,18.26
2019-05-30T19:36:15.373Z,18.28
2019-05-30T19:38:45.709Z,18.41
2019-05-30T19:41:16.399Z,18.28
2019-05-30T19:43:46.677Z,18.17
2019-05-30T19:46:17.046Z,18.31
2019-05-30T19:48:47.763Z,18.32
2019-05-30T19:51:20.966Z,18.14
2019-05-30T19:53:50.245Z,17.97
2019-05-30T19:56:20.848Z,18.01
2019-05-30T19:58:51.340Z,17.95
2019-05-30T20:01:21.739Z,18.19
2019-05-30T20:03:52.114Z,18.08
2019-05-30T20:06:24.862Z,17.90
2019-05-30T20:08:55.936Z,17.91
2019-05-30T20:11:27.067Z,17.76
2019-05-30T20:13:57.681Z,17.72
2019-05-30T20:16:27.947Z,17.72
2019-05-30T20:18:58.332Z,17.81
2019-05-30T20:21:29.104Z,17.74
2019-05-30T20:23:59.777Z,17.70
2019-05-30T20:26:30.175Z,17.57
2019-05-30T20:29:00.659Z,17.42
2019-05-30T20:31:31.324Z,17.40
2019-05-30T20:34:01.699Z,17.15
2019-05-30T20:36:31.979Z,17.15
2019-05-30T20:39:02.592Z,17.13
2019-05-30T20:41:33.347Z,17.16
2019-05-30T20:44:03.657Z,16.92
2019-05-30T20:46:34.828Z,17.00
2019-05-30T20:49:06.083Z,16.84
2019-05-30T20:51:37.213Z,16.84
2019-05-30T20:54:08.818Z,16.86
2019-05-30T20:56:39.563Z,16.80
2019-05-30T20:59:10.537Z,16.80
2019-05-30T21:01:41.780Z,16.87
2019-05-30T21:04:13.020Z,16.72
2019-05-30T21:06:44.325Z,16.89
2019-05-30T21:09:28.573Z,16.99
2019-05-30T21:11:48.463Z,16.99
2019-05-30T21:14:20.531Z,16.95
2019-05-30T21:16:52.940Z,16.90
2019-05-30T21:19:23.545Z,16.89
2019-05-30T21:21:53.888Z,17.15
2019-05-30T21:24:25.607Z,17.15
2019-05-30T21:26:56.224Z,17.26
2019-05-30T21:29:26.598Z,17.24
2019-05-30T21:31:57.302Z,17.24
2019-05-30T21:34:28.848Z,17.53
2019-05-30T21:36:59.737Z,17.49
2019-05-30T21:39:30.513Z,17.36
2019-05-30T21:42:00.838Z,17.51
2019-05-30T21:44:31.528Z,17.72
2019-05-30T21:47:02.759Z,17.62
2019-05-30T21:49:33.052Z,17.27
2019-05-30T21:52:03.895Z,17.25
2019-05-30T21:54:34.665Z,17.35
2019-05-30T21:57:05.005Z,17.55
2019-05-30T21:59:35.537Z,17.40
2019-05-30T22:02:06.256Z,17.45
2019-05-30T22:04:36.524Z,17.43
2019-05-30T22:07:07.109Z,17.60
2019-05-30T22:09:37.408Z,17.60
2019-05-30T22:12:08.321Z,17.41
2019-05-30T22:14:38.892Z,17.59
2019-05-30T22:17:09.174Z,17.32
2019-05-30T22:19:39.645Z,17.40
2019-05-30T22:22:10.420Z,17.40
2019-05-30T22:24:42.108Z,17.54
2019-05-30T22:27:12.639Z,17.52
2019-05-30T22:29:44.301Z,17.26
2019-05-30T22:32:15.652Z,17.13
2019-05-30T22:34:46.646Z,17.13
2019-05-30T22:37:17.245Z,16.95
2019-05-30T22:39:48.830Z,17.20
2019-05-30T22:42:19.554Z,17.20
2019-05-30T22:44:50.201Z,16.87
2019-05-30T22:47:20.659Z,16.87
2019-05-30T22:49:52.834Z,16.85
2019-05-30T22:52:23.369Z,16.93
2019-05-30T22:54:53.644Z,16.76
2019-05-30T22:57:24.187Z,17.20
2019-05-30T22:59:55.515Z,16.73
2019-05-30T23:02:25.791Z,16.61
2019-05-30T23:04:56.436Z,16.61
2019-05-30T23:07:27.101Z,16.89
2019-05-30T23:09:57.629Z,16.81
2019-05-30T23:12:27.944Z,16.81
2019-05-30T23:14:58.252Z,16.91
2019-05-30T23:17:29.045Z,16.96
2019-05-30T23:19:59.568Z,17.30
2019-05-30T23:22:29.900Z,17.06
2019-05-30T23:25:00.664Z,17.07
2019-05-30T23:27:31.237Z,16.80
2019-05-30T23:30:01.554Z,16.80
2019-05-30T23:32:32.121Z,16.84
2019-05-30T23:35:02.912Z,16.73
2019-05-30T23:37:33.264Z,16.60
2019-05-30T23:40:04.136Z,16.95
2019-05-30T23:42:34.583Z,16.95
2019-05-30T23:45:05.567Z,16.77
2019-05-30T23:47:36.355Z,17.30
2019-05-30T23:50:08.097Z,17.43
2019-05-30T23:52:38.724Z,17.43
2019-05-30T23:55:09.519Z,17.16
2019-05-30T23:57:39.802Z,17.27
